Time;durP1;ratioP1;P1;durP2;ratioP2;P2;SDS_P1;SDS_P2;PMS_P1;PMS_P2;Temp;Humidity;BMP_temperature;BMP_pressure;BME280_temperature;BME280_humidity;BME280_pressure;Samples;Min_cycle;Max_cycle;Signal;HPM_P1;HPM_P2
2020/12/14 00:00:07;;;;;;;112.40;37.80;;;;;;;;;;5069288;28;20044;-63
2020/12/14 00:02:33;;;;;;;113.13;38.40;;;;;;;;;;5072808;28;20048;-63
2020/12/14 00:04:59;;;;;;;111.82;38.15;;;;;;;;;;5081468;28;20047;-63
2020/12/14 00:07:25;;;;;;;112.10;37.85;;;;;;;;;;5073137;28;20021;-63
2020/12/14 00:09:51;;;;;;;105.68;37.60;;;;;;;;;;5079047;28;20058;-63
2020/12/14 00:12:17;;;;;;;115.10;37.88;;;;;;;;;;5066606;28;20769;-63
2020/12/14 00:14:43;;;;;;;120.60;38.22;;;;;;;;;;5079755;28;20032;-63
2020/12/14 00:17:09;;;;;;;114.60;38.30;;;;;;;;;;5084253;28;20069;-63
2020/12/14 00:19:35;;;;;;;109.63;39.53;;;;;;;;;;5078366;28;20032;-63
2020/12/14 00:22:01;;;;;;;117.32;40.22;;;;;;;;;;5080225;28;20033;-63
2020/12/14 00:24:27;;;;;;;113.53;36.47;;;;;;;;;;5067954;28;20020;-63
2020/12/14 00:26:53;;;;;;;97.72;38.25;;;;;;;;;;5079858;28;20024;-63
2020/12/14 00:29:19;;;;;;;104.72;36.00;;;;;;;;;;5077242;28;20048;-63
2020/12/14 00:31:49;;;;;;;104.13;36.70;;;;;;;;;;5086870;28;20020;-63
2020/12/14 00:34:15;;;;;;;101.07;35.78;;;;;;;;;;5077835;28;20048;-63
2020/12/14 00:36:43;;;;;;;104.97;36.88;;;;;;;;;;5083060;28;20027;-63
2020/12/14 00:39:09;;;;;;;102.30;36.22;;;;;;;;;;5061338;28;20035;-63
2020/12/14 00:41:35;;;;;;;103.57;36.33;;;;;;;;;;5087894;28;20039;-63
2020/12/14 00:44:01;;;;;;;102.00;35.40;;;;;;;;;;5083694;28;20085;-63
2020/12/14 00:46:27;;;;;;;101.65;35.80;;;;;;;;;;5061606;28;20032;-63
2020/12/14 00:48:53;;;;;;;101.38;35.70;;;;;;;;;;5085154;28;20028;-63
2020/12/14 00:51:25;;;;;;;96.60;35.17;;;;;;;;;;5086898;28;20032;-63
2020/12/14 00:53:51;;;;;;;95.53;34.42;;;;;;;;;;5082373;28;20078;-63
2020/12/14 00:56:17;;;;;;;96.03;35.22;;;;;;;;;;5050107;28;20449;-63
2020/12/14 00:58:43;;;;;;;107.07;35.97;;;;;;;;;;5064503;28;20020;-63
2020/12/14 01:01:09;;;;;;;92.78;33.58;;;;;;;;;;5051392;28;20074;-63
2020/12/14 01:03:35;;;;;;;104.75;36.45;;;;;;;;;;5072522;28;20132;-63
2020/12/14 01:06:01;;;;;;;103.57;34.92;;;;;;;;;;5062209;28;20082;-63
2020/12/14 01:08:27;;;;;;;103.75;37.15;;;;;;;;;;5079215;28;20028;-63
2020/12/14 01:10:53;;;;;;;94.00;35.45;;;;;;;;;;5069122;28;20031;-63
2020/12/14 01:13:19;;;;;;;101.93;36.03;;;;;;;;;;5066358;28;20128;-63
2020/12/14 01:15:46;;;;;;;93.72;35.80;;;;;;;;;;5075656;28;20028;-63
2020/12/14 01:18:12;;;;;;;94.90;35.30;;;;;;;;;;5081812;28;20096;-63
2020/12/14 01:20:41;;;;;;;94.63;33.75;;;;;;;;;;5076768;28;20035;-63
2020/12/14 01:23:08;;;;;;;87.65;34.60;;;;;;;;;;5059243;28;20107;-63
2020/12/14 01:25:33;;;;;;;88.57;33.17;;;;;;;;;;5074869;28;20032;-63
2020/12/14 01:27:59;;;;;;;92.88;32.88;;;;;;;;;;5081801;28;20380;-63
2020/12/14 01:30:25;;;;;;;99.35;34.50;;;;;;;;;;5077100;28;20033;-63
2020/12/14 01:32:52;;;;;;;92.00;32.78;;;;;;;;;;5079190;28;20032;-63
2020/12/14 01:35:18;;;;;;;80.82;30.30;;;;;;;;;;5057332;28;20529;-63
2020/12/14 01:37:44;;;;;;;85.15;31.33;;;;;;;;;;5070570;28;20035;-63
2020/12/14 01:40:10;;;;;;;99.32;32.35;;;;;;;;;;5079620;28;20032;-63
2020/12/14 01:42:39;;;;;;;96.15;33.63;;;;;;;;;;5078879;28;20141;-63
2020/12/14 01:45:06;;;;;;;89.50;33.13;;;;;;;;;;5079954;28;20025;-63
2020/12/14 01:47:42;;;;;;;103.50;34.53;;;;;;;;;;5061623;28;20033;-63
2020/12/14 01:50:11;;;;;;;97.50;34.95;;;;;;;;;;5067373;28;20074;-63
2020/12/14 01:52:39;;;;;;;99.32;34.95;;;;;;;;;;5080558;28;20142;-63
2020/12/14 01:55:06;;;;;;;93.65;34.53;;;;;;;;;;5084950;28;20736;-63
2020/12/14 01:57:32;;;;;;;86.05;32.22;;;;;;;;;;5084206;28;20039;-63
2020/12/14 01:59:58;;;;;;;102.22;33.22;;;;;;;;;;5060570;28;20024;-63
2020/12/14 02:02:27;;;;;;;108.63;33.33;;;;;;;;;;5065359;28;20024;-63
2020/12/14 02:04:53;;;;;;;91.95;31.83;;;;;;;;;;5066589;28;20028;-63
2020/12/14 02:07:19;;;;;;;101.80;31.60;;;;;;;;;;5070060;28;20085;-63
2020/12/14 02:09:45;;;;;;;78.05;29.75;;;;;;;;;;5082239;28;20035;-63
2020/12/14 02:12:11;;;;;;;71.38;28.40;;;;;;;;;;5066536;28;20099;-63
2020/12/14 02:14:37;;;;;;;75.60;29.67;;;;;;;;;;5070382;28;20036;-63
2020/12/14 02:17:04;;;;;;;83.85;29.25;;;;;;;;;;5083214;28;20024;-63
2020/12/14 02:19:30;;;;;;;69.00;28.70;;;;;;;;;;5076737;28;20033;-63
2020/12/14 02:21:57;;;;;;;70.22;27.55;;;;;;;;;;5077141;28;20746;-62
2020/12/14 02:24:23;;;;;;;75.97;30.50;;;;;;;;;;5073110;28;20032;-63
2020/12/14 02:26:49;;;;;;;81.75;28.40;;;;;;;;;;5085093;28;20467;-63
2020/12/14 02:29:18;;;;;;;63.13;27.33;;;;;;;;;;5083781;28;20036;-63
2020/12/14 02:31:45;;;;;;;68.85;29.75;;;;;;;;;;5082671;28;20028;-63
2020/12/14 02:34:11;;;;;;;72.85;28.98;;;;;;;;;;5078428;28;20036;-63
2020/12/14 02:36:37;;;;;;;65.82;27.38;;;;;;;;;;5073102;28;20036;-63
2020/12/14 02:39:06;;;;;;;78.53;27.02;;;;;;;;;;5081421;28;20788;-63
2020/12/14 02:41:32;;;;;;;76.07;27.75;;;;;;;;;;5076313;28;20032;-63
2020/12/14 02:43:58;;;;;;;68.82;26.98;;;;;;;;;;5078606;28;20038;-63
2020/12/14 02:46:24;;;;;;;67.97;27.48;;;;;;;;;;5072255;28;20032;-63
2020/12/14 02:48:50;;;;;;;68.57;27.42;;;;;;;;;;5084980;28;20357;-63
2020/12/14 02:51:19;;;;;;;66.85;29.10;;;;;;;;;;5086558;28;20379;-63
2020/12/14 02:53:46;;;;;;;61.03;27.35;;;;;;;;;;5080656;28;20035;-63
2020/12/14 02:56:12;;;;;;;63.95;28.05;;;;;;;;;;5068481;28;20039;-63
2020/12/14 02:58:38;;;;;;;74.03;28.98;;;;;;;;;;5062746;28;20381;-63
2020/12/14 03:01:04;;;;;;;71.93;28.55;;;;;;;;;;5071467;28;20024;-63
2020/12/14 03:03:30;;;;;;;65.07;27.33;;;;;;;;;;5074516;28;20053;-63
2020/12/14 03:05:56;;;;;;;67.10;28.20;;;;;;;;;;5078678;28;20036;-63
2020/12/14 03:08:22;;;;;;;63.53;27.33;;;;;;;;;;5087711;28;20031;-63
2020/12/14 03:10:48;;;;;;;59.83;26.40;;;;;;;;;;5078194;28;20020;-63
2020/12/14 03:13:14;;;;;;;78.07;26.75;;;;;;;;;;5066204;28;20491;-63
2020/12/14 03:15:40;;;;;;;70.43;28.15;;;;;;;;;;5077433;28;20544;-63
2020/12/14 03:18:06;;;;;;;75.80;28.67;;;;;;;;;;5067976;28;20081;-63
2020/12/14 03:20:32;;;;;;;70.93;26.55;;;;;;;;;;5086069;28;20020;-63
2020/12/14 03:22:58;;;;;;;75.15;28.17;;;;;;;;;;5073723;28;20430;-63
2020/12/14 03:25:24;;;;;;;76.03;29.15;;;;;;;;;;5071214;28;20882;-63
2020/12/14 03:27:50;;;;;;;74.55;29.63;;;;;;;;;;5069705;28;20028;-63
2020/12/14 03:30:17;;;;;;;71.95;30.80;;;;;;;;;;5088232;28;20495;-63
2020/12/14 03:32:43;;;;;;;73.82;30.00;;;;;;;;;;5089251;28;20515;-63
2020/12/14 03:35:08;;;;;;;76.43;29.98;;;;;;;;;;5083653;28;20035;-63
2020/12/14 03:37:34;;;;;;;68.10;28.50;;;;;;;;;;5074950;28;20025;-63
2020/12/14 03:40:00;;;;;;;68.75;29.02;;;;;;;;;;5085199;28;20048;-63
2020/12/14 03:42:29;;;;;;;67.38;27.80;;;;;;;;;;5087754;28;20081;-63
2020/12/14 03:44:55;;;;;;;67.95;26.95;;;;;;;;;;5082204;28;20034;-63
2020/12/14 03:47:21;;;;;;;69.95;28.58;;;;;;;;;;5068521;28;20033;-63
2020/12/14 03:49:47;;;;;;;61.60;28.13;;;;;;;;;;5068385;28;20036;-63
2020/12/14 03:52:13;;;;;;;67.50;26.13;;;;;;;;;;5078421;28;20082;-63
2020/12/14 03:54:39;;;;;;;63.65;26.10;;;;;;;;;;5065816;28;20043;-63
2020/12/14 03:57:05;;;;;;;54.70;25.65;;;;;;;;;;5075839;28;20074;-63
2020/12/14 03:59:31;;;;;;;56.72;25.92;;;;;;;;;;5071587;28;20035;-63
2020/12/14 04:01:57;;;;;;;58.80;25.85;;;;;;;;;;5088644;28;20017;-63
2020/12/14 04:04:23;;;;;;;58.83;25.55;;;;;;;;;;5070973;28;20044;-63
2020/12/14 04:06:49;;;;;;;52.05;24.17;;;;;;;;;;5066423;28;20460;-63
2020/12/14 04:09:15;;;;;;;50.55;24.30;;;;;;;;;;5055621;28;20020;-63
2020/12/14 04:11:41;;;;;;;48.63;23.63;;;;;;;;;;5074510;28;20021;-63
2020/12/14 04:14:07;;;;;;;55.45;24.75;;;;;;;;;;5080605;28;20031;-63
2020/12/14 04:16:33;;;;;;;49.28;24.20;;;;;;;;;;5065677;28;20728;-63
2020/12/14 04:18:59;;;;;;;47.83;23.20;;;;;;;;;;5086086;28;20364;-63
2020/12/14 04:21:25;;;;;;;51.20;24.25;;;;;;;;;;5081172;28;20032;-63
2020/12/14 04:23:51;;;;;;;44.90;22.63;;;;;;;;;;5069241;28;20024;-62
2020/12/14 04:26:17;;;;;;;47.30;22.90;;;;;;;;;;5078520;28;20701;-63
2020/12/14 04:28:43;;;;;;;47.80;23.33;;;;;;;;;;5086079;28;20043;-63
2020/12/14 04:31:09;;;;;;;39.58;22.38;;;;;;;;;;5076218;28;20028;-62
2020/12/14 04:33:37;;;;;;;44.58;22.08;;;;;;;;;;5086267;28;20020;-63
2020/12/14 04:36:03;;;;;;;39.63;21.25;;;;;;;;;;5076189;28;20039;-63
2020/12/14 04:38:29;;;;;;;38.78;20.52;;;;;;;;;;5071732;28;20020;-63
2020/12/14 04:41:01;;;;;;;41.92;20.95;;;;;;;;;;5074294;28;20369;-63
2020/12/14 04:43:27;;;;;;;38.58;20.15;;;;;;;;;;5061750;28;20452;-63
2020/12/14 04:45:54;;;;;;;37.80;19.55;;;;;;;;;;5073904;28;20083;-63
2020/12/14 04:48:20;;;;;;;39.38;20.63;;;;;;;;;;5081053;28;20513;-62
2020/12/14 04:50:46;;;;;;;37.92;19.23;;;;;;;;;;5077309;28;20083;-63
2020/12/14 04:53:12;;;;;;;36.17;19.52;;;;;;;;;;5073731;28;20036;-63
2020/12/14 04:55:38;;;;;;;38.05;19.77;;;;;;;;;;5082568;28;20033;-63
2020/12/14 04:58:05;;;;;;;36.95;19.20;;;;;;;;;;5083438;28;20422;-63
2020/12/14 05:00:31;;;;;;;35.65;18.92;;;;;;;;;;5081505;28;20017;-63
2020/12/14 05:02:57;;;;;;;37.22;18.90;;;;;;;;;;5062443;28;20186;-63
2020/12/14 05:05:24;;;;;;;36.13;19.08;;;;;;;;;;5075433;28;20044;-63
2020/12/14 05:07:50;;;;;;;42.13;20.92;;;;;;;;;;5067637;28;20026;-63
2020/12/14 05:10:16;;;;;;;36.95;19.67;;;;;;;;;;5070131;28;20032;-63
2020/12/14 05:12:44;;;;;;;40.03;21.42;;;;;;;;;;5070927;28;20377;-62
2020/12/14 05:15:16;;;;;;;38.53;21.17;;;;;;;;;;5058398;28;20373;-63
2020/12/14 05:17:42;;;;;;;42.20;21.35;;;;;;;;;;5075175;28;20101;-62
2020/12/14 05:20:17;;;;;;;43.92;21.33;;;;;;;;;;5082942;28;20016;-63
2020/12/14 05:22:56;;;;;;;39.70;20.23;;;;;;;;;;5063604;28;20529;-63
2020/12/14 05:25:23;;;;;;;40.85;20.60;;;;;;;;;;5072146;28;20036;-62
2020/12/14 05:27:49;;;;;;;34.92;19.98;;;;;;;;;;5071653;28;20486;-62
2020/12/14 05:30:15;;;;;;;38.45;21.52;;;;;;;;;;5068878;28;20024;-63
2020/12/14 05:32:42;;;;;;;37.88;21.02;;;;;;;;;;5076864;28;20019;-63
2020/12/14 05:35:11;;;;;;;41.42;21.35;;;;;;;;;;5078221;28;20024;-63
2020/12/14 05:37:38;;;;;;;46.72;25.05;;;;;;;;;;5070257;28;20017;-63
2020/12/14 05:40:10;;;;;;;43.95;25.83;;;;;;;;;;5068309;28;20039;-63
2020/12/14 05:42:40;;;;;;;47.33;25.27;;;;;;;;;;5069278;28;20028;-63
2020/12/14 05:45:11;;;;;;;42.47;22.77;;;;;;;;;;5075942;28;20028;-62
2020/12/14 05:47:37;;;;;;;57.22;35.13;;;;;;;;;;5079064;28;20439;-63
2020/12/14 05:50:07;;;;;;;61.15;35.92;;;;;;;;;;5050589;28;20028;-63
2020/12/14 05:52:36;;;;;;;48.47;24.27;;;;;;;;;;5069780;28;20031;-63
2020/12/14 05:55:02;;;;;;;112.78;60.95;;;;;;;;;;5077858;28;20122;-63
2020/12/14 05:57:32;;;;;;;76.00;42.42;;;;;;;;;;5071606;28;20039;-63
2020/12/14 06:00:11;;;;;;;43.90;23.52;;;;;;;;;;5083142;28;20020;-63
2020/12/14 06:02:37;;;;;;;79.18;48.17;;;;;;;;;;5082180;28;20467;-63
2020/12/14 06:05:05;;;;;;;55.17;31.95;;;;;;;;;;5057628;28;20028;-63
2020/12/14 06:07:32;;;;;;;35.97;20.05;;;;;;;;;;5065016;28;20098;-63
2020/12/14 06:10:08;;;;;;;39.15;21.13;;;;;;;;;;5081555;28;20035;-62
2020/12/14 06:12:36;;;;;;;72.40;48.45;;;;;;;;;;5078919;28;20111;-63
2020/12/14 06:15:06;;;;;;;40.22;21.58;;;;;;;;;;5063561;28;20028;-62
2020/12/14 06:17:32;;;;;;;36.65;19.10;;;;;;;;;;5064402;28;20024;-63
2020/12/14 06:20:09;;;;;;;33.97;18.98;;;;;;;;;;5066805;28;20032;-63
2020/12/14 06:22:35;;;;;;;36.10;19.70;;;;;;;;;;5064386;28;20080;-62
2020/12/14 06:25:04;;;;;;;53.58;32.05;;;;;;;;;;5075200;28;20100;-62
2020/12/14 06:27:31;;;;;;;35.28;20.38;;;;;;;;;;5074023;28;20032;-62
2020/12/14 06:29:57;;;;;;;42.50;24.52;;;;;;;;;;5075483;28;20515;-62
2020/12/14 06:32:39;;;;;;;48.97;23.35;;;;;;;;;;5079665;28;20043;-62
2020/12/14 06:35:16;;;;;;;173.05;97.57;;;;;;;;;;5082999;28;20024;-62
2020/12/14 06:37:52;;;;;;;42.70;24.35;;;;;;;;;;5078116;28;20032;-62
2020/12/14 06:40:18;;;;;;;82.43;43.55;;;;;;;;;;5084066;28;20028;-62
2020/12/14 06:42:45;;;;;;;96.45;47.53;;;;;;;;;;5076447;28;20489;-62
2020/12/14 06:45:12;;;;;;;83.22;40.88;;;;;;;;;;5078140;28;20059;-63
2020/12/14 06:47:42;;;;;;;36.97;19.10;;;;;;;;;;5073227;28;20435;-62
2020/12/14 06:50:24;;;;;;;56.45;29.80;;;;;;;;;;5085308;28;20078;-62
2020/12/14 06:52:50;;;;;;;43.45;23.83;;;;;;;;;;5072339;28;20028;-63
2020/12/14 06:55:16;;;;;;;39.42;18.67;;;;;;;;;;5072630;28;20337;-62
2020/12/14 06:57:42;;;;;;;38.60;20.48;;;;;;;;;;5075774;28;20038;-62
2020/12/14 07:00:08;;;;;;;78.03;37.53;;;;;;;;;;5079749;28;20467;-62
2020/12/14 07:02:43;;;;;;;36.90;18.90;;;;;;;;;;5078425;28;20040;-63
2020/12/14 07:05:28;;;;;;;58.35;37.65;;;;;;;;;;5065785;28;20029;-63
2020/12/14 07:07:55;;;;;;;45.53;22.25;;;;;;;;;;5070568;28;20036;-63
2020/12/14 07:10:24;;;;;;;37.00;20.20;;;;;;;;;;5053755;28;20037;-62
2020/12/14 07:12:50;;;;;;;44.90;25.73;;;;;;;;;;5065407;28;20021;-63
2020/12/14 07:15:23;;;;;;;41.15;22.23;;;;;;;;;;5069456;28;20074;-63
2020/12/14 07:17:59;;;;;;;35.83;19.40;;;;;;;;;;5071276;28;20043;-63
2020/12/14 07:20:25;;;;;;;39.58;23.50;;;;;;;;;;5082935;28;21093;-63
2020/12/14 07:22:52;;;;;;;38.67;20.52;;;;;;;;;;5065067;28;20032;-63
2020/12/14 07:25:22;;;;;;;43.08;21.10;;;;;;;;;;5078194;28;20036;-63
2020/12/14 07:27:48;;;;;;;47.20;24.83;;;;;;;;;;5055920;28;20071;-63
2020/12/14 07:30:14;;;;;;;38.70;20.30;;;;;;;;;;5060898;28;20028;-63
2020/12/14 07:32:41;;;;;;;35.88;19.95;;;;;;;;;;5080548;28;20036;-63
2020/12/14 07:35:08;;;;;;;43.15;24.40;;;;;;;;;;5078287;28;20383;-63
2020/12/14 07:37:37;;;;;;;34.55;19.70;;;;;;;;;;5087468;28;20045;-62
2020/12/14 07:40:06;;;;;;;42.60;22.25;;;;;;;;;;5087319;28;20498;-63
2020/12/14 07:42:33;;;;;;;37.13;19.63;;;;;;;;;;5082961;28;20021;-63
2020/12/14 07:45:15;;;;;;;38.72;20.17;;;;;;;;;;5078561;28;20463;-63
2020/12/14 07:47:42;;;;;;;39.70;20.50;;;;;;;;;;5064049;28;20028;-63
2020/12/14 07:50:17;;;;;;;33.15;19.45;;;;;;;;;;5086846;28;20047;-63
2020/12/14 07:52:46;;;;;;;33.60;18.08;;;;;;;;;;5070240;28;20028;-62
2020/12/14 07:55:12;;;;;;;34.63;19.13;;;;;;;;;;5069505;28;20078;-62
2020/12/14 07:57:39;;;;;;;31.55;17.63;;;;;;;;;;5082898;28;20052;-62
2020/12/14 08:00:06;;;;;;;37.35;19.98;;;;;;;;;;5067013;28;20032;-61
2020/12/14 08:02:32;;;;;;;36.22;19.48;;;;;;;;;;5073410;28;20104;-62
2020/12/14 08:05:03;;;;;;;32.92;18.00;;;;;;;;;;5074496;28;20029;-62
2020/12/14 08:07:32;;;;;;;31.50;17.80;;;;;;;;;;5076298;28;20024;-61
2020/12/14 08:10:00;;;;;;;32.42;18.90;;;;;;;;;;5070845;28;20025;-61
2020/12/14 08:12:26;;;;;;;31.65;17.65;;;;;;;;;;5082399;28;20050;-61
2020/12/14 08:14:52;;;;;;;35.50;18.20;;;;;;;;;;5070281;28;20074;-62
2020/12/14 08:17:18;;;;;;;32.47;17.65;;;;;;;;;;5069170;28;20039;-62
2020/12/14 08:19:45;;;;;;;30.95;17.33;;;;;;;;;;5078403;28;20028;-61
2020/12/14 08:22:15;;;;;;;33.92;18.95;;;;;;;;;;5069455;28;20025;-61
2020/12/14 08:24:44;;;;;;;35.22;18.27;;;;;;;;;;5077077;28;20025;-62
2020/12/14 08:27:12;;;;;;;30.20;18.88;;;;;;;;;;5082973;28;20042;-60
2020/12/14 08:29:50;;;;;;;37.00;18.63;;;;;;;;;;5071204;28;20111;-62
2020/12/14 08:32:16;;;;;;;33.95;18.20;;;;;;;;;;5068652;28;20165;-62
2020/12/14 08:34:42;;;;;;;32.10;17.52;;;;;;;;;;5068230;28;20032;-62
2020/12/14 08:37:08;;;;;;;31.55;17.10;;;;;;;;;;5077428;28;20078;-62
2020/12/14 08:39:34;;;;;;;29.52;15.65;;;;;;;;;;5066524;28;20463;-60
2020/12/14 08:42:14;;;;;;;32.03;18.00;;;;;;;;;;5067238;28;20271;-61
2020/12/14 08:44:40;;;;;;;31.30;16.25;;;;;;;;;;5073822;28;20017;-62
2020/12/14 08:47:17;;;;;;;29.30;15.90;;;;;;;;;;5077521;28;20403;-61
2020/12/14 08:49:43;;;;;;;25.67;15.52;;;;;;;;;;5078234;28;20051;-62
2020/12/14 08:52:19;;;;;;;27.60;15.05;;;;;;;;;;5082944;28;20025;-60
2020/12/14 08:54:52;;;;;;;26.05;15.77;;;;;;;;;;5079474;28;20039;-62
2020/12/14 08:57:28;;;;;;;26.63;15.23;;;;;;;;;;5076779;28;20523;-62
2020/12/14 09:00:15;;;;;;;24.70;15.25;;;;;;;;;;5068873;28;20040;-62
2020/12/14 09:02:41;;;;;;;27.25;15.70;;;;;;;;;;5066637;28;20056;-62
2020/12/14 09:05:17;;;;;;;27.38;15.60;;;;;;;;;;5071990;28;20032;-62
2020/12/14 09:07:43;;;;;;;25.20;14.60;;;;;;;;;;5075236;28;20047;-62
2020/12/14 09:10:20;;;;;;;24.05;14.93;;;;;;;;;;5069761;28;20567;-62
2020/12/14 09:12:46;;;;;;;24.02;14.35;;;;;;;;;;5076843;28;20743;-62
2020/12/14 09:15:12;;;;;;;26.15;14.10;;;;;;;;;;5074165;28;20795;-62
2020/12/14 09:17:38;;;;;;;26.00;14.23;;;;;;;;;;5080538;28;20135;-60
2020/12/14 09:20:07;;;;;;;24.83;13.90;;;;;;;;;;5071076;28;20032;-62
2020/12/14 09:22:33;;;;;;;24.13;14.48;;;;;;;;;;5065452;28;20113;-62
2020/12/14 09:24:59;;;;;;;21.05;12.95;;;;;;;;;;5082474;28;20028;-61
2020/12/14 09:27:25;;;;;;;25.88;14.25;;;;;;;;;;5074884;28;20140;-61
2020/12/14 09:29:51;;;;;;;22.15;13.52;;;;;;;;;;5079727;28;20063;-62
2020/12/14 09:32:17;;;;;;;23.05;13.73;;;;;;;;;;5078642;28;20036;-62
2020/12/14 09:34:43;;;;;;;27.27;13.63;;;;;;;;;;5074067;28;20071;-62
2020/12/14 09:37:09;;;;;;;24.48;13.38;;;;;;;;;;5061915;28;20131;-62
2020/12/14 09:39:36;;;;;;;21.17;13.32;;;;;;;;;;5070699;28;20032;-62
2020/12/14 09:42:03;;;;;;;23.55;13.48;;;;;;;;;;5076383;28;20103;-62
2020/12/14 09:44:30;;;;;;;24.23;13.70;;;;;;;;;;5080274;28;20021;-61
2020/12/14 09:46:58;;;;;;;20.85;12.70;;;;;;;;;;5072367;28;20655;-62
2020/12/14 09:49:24;;;;;;;24.77;12.98;;;;;;;;;;5066549;28;20051;-61
2020/12/14 09:51:50;;;;;;;23.08;12.68;;;;;;;;;;5066618;28;20105;-62
2020/12/14 09:54:16;;;;;;;24.73;12.98;;;;;;;;;;5068087;28;20123;-62
2020/12/14 09:56:43;;;;;;;27.10;14.40;;;;;;;;;;5066042;28;20028;-62
2020/12/14 09:59:09;;;;;;;22.92;11.98;;;;;;;;;;5066346;28;20040;-62
2020/12/14 10:01:35;;;;;;;20.17;11.77;;;;;;;;;;5081089;28;20024;-62
2020/12/14 10:04:01;;;;;;;20.05;12.38;;;;;;;;;;5076736;28;20491;-62
2020/12/14 10:06:27;;;;;;;22.52;13.15;;;;;;;;;;5071800;28;20044;-62
2020/12/14 10:08:53;;;;;;;22.98;12.40;;;;;;;;;;5075072;28;20554;-62
2020/12/14 10:11:23;;;;;;;22.75;13.00;;;;;;;;;;5071887;28;20068;-62
2020/12/14 10:13:49;;;;;;;22.27;12.60;;;;;;;;;;5060604;28;20021;-62
2020/12/14 10:16:15;;;;;;;21.85;12.15;;;;;;;;;;5064318;28;20090;-62
2020/12/14 10:18:41;;;;;;;22.05;12.65;;;;;;;;;;5068010;28;20012;-62
2020/12/14 10:21:07;;;;;;;19.33;11.63;;;;;;;;;;5071019;28;20040;-62
2020/12/14 10:23:34;;;;;;;24.75;13.52;;;;;;;;;;5052514;28;20025;-62
2020/12/14 10:26:00;;;;;;;20.65;10.68;;;;;;;;;;5066196;28;20079;-62
2020/12/14 10:28:26;;;;;;;19.45;10.70;;;;;;;;;;5067299;28;20077;-61
2020/12/14 10:30:52;;;;;;;18.45;10.88;;;;;;;;;;5065917;28;20565;-60
2020/12/14 10:33:18;;;;;;;19.23;11.15;;;;;;;;;;5070486;28;20028;-62
2020/12/14 10:35:44;;;;;;;21.40;11.20;;;;;;;;;;5074683;28;20039;-62
2020/12/14 10:38:14;;;;;;;19.20;10.52;;;;;;;;;;5078720;28;20080;-62
2020/12/14 10:40:40;;;;;;;21.30;11.13;;;;;;;;;;5067655;28;20119;-62
2020/12/14 10:43:06;;;;;;;19.70;10.55;;;;;;;;;;5064342;28;20028;-62
2020/12/14 10:45:32;;;;;;;19.20;9.38;;;;;;;;;;5071718;28;20026;-61
2020/12/14 10:47:58;;;;;;;19.70;9.52;;;;;;;;;;5084716;28;20028;-62
2020/12/14 10:50:25;;;;;;;16.45;10.15;;;;;;;;;;5074312;28;20028;-62
2020/12/14 10:52:51;;;;;;;18.20;9.23;;;;;;;;;;5081064;28;20024;-62
2020/12/14 10:55:20;;;;;;;18.92;10.27;;;;;;;;;;5085336;28;20039;-62
2020/12/14 10:57:46;;;;;;;15.30;8.55;;;;;;;;;;5082936;28;20057;-58
2020/12/14 11:00:12;;;;;;;17.42;9.15;;;;;;;;;;5065236;28;20111;-62
2020/12/14 11:02:39;;;;;;;17.88;9.30;;;;;;;;;;5083918;28;20826;-62
2020/12/14 11:05:06;;;;;;;15.23;8.75;;;;;;;;;;5062839;28;20582;-63
2020/12/14 11:07:33;;;;;;;15.50;8.23;;;;;;;;;;5079067;28;20146;-62
2020/12/14 11:09:59;;;;;;;13.30;7.38;;;;;;;;;;5074982;28;20078;-63
2020/12/14 11:12:26;;;;;;;13.50;7.93;;;;;;;;;;5086358;28;20039;-62
2020/12/14 11:14:52;;;;;;;15.57;7.30;;;;;;;;;;5078300;28;20024;-62
2020/12/14 11:17:18;;;;;;;14.20;7.40;;;;;;;;;;5089006;28;20799;-62
2020/12/14 11:19:44;;;;;;;13.80;7.65;;;;;;;;;;5089725;28;20463;-63
2020/12/14 11:22:10;;;;;;;14.13;8.20;;;;;;;;;;5080183;28;20025;-63
2020/12/14 11:24:36;;;;;;;13.05;7.10;;;;;;;;;;5077885;28;20451;-63
2020/12/14 11:27:02;;;;;;;14.63;7.15;;;;;;;;;;5089141;28;20028;-63
2020/12/14 11:29:28;;;;;;;14.57;6.78;;;;;;;;;;5088799;28;20131;-63
2020/12/14 11:31:54;;;;;;;14.55;6.82;;;;;;;;;;5076011;28;20032;-63
2020/12/14 11:34:21;;;;;;;14.75;7.72;;;;;;;;;;5077339;28;20073;-63
2020/12/14 11:36:47;;;;;;;14.07;6.97;;;;;;;;;;5089213;28;20024;-63
2020/12/14 11:39:13;;;;;;;10.98;6.82;;;;;;;;;;5088727;28;20532;-63
2020/12/14 11:41:39;;;;;;;11.70;6.65;;;;;;;;;;5088341;28;20016;-63
2020/12/14 11:44:05;;;;;;;13.60;7.43;;;;;;;;;;5087666;28;20027;-63
2020/12/14 11:46:31;;;;;;;13.77;7.22;;;;;;;;;;5086532;28;20039;-63
2020/12/14 11:48:58;;;;;;;12.38;7.30;;;;;;;;;;5089314;28;20062;-63
2020/12/14 11:51:23;;;;;;;10.73;6.90;;;;;;;;;;5088725;28;20714;-63
2020/12/14 11:53:50;;;;;;;14.48;7.25;;;;;;;;;;5080127;28;20032;-63
2020/12/14 11:56:16;;;;;;;13.98;6.85;;;;;;;;;;5088815;28;20055;-63
2020/12/14 11:58:42;;;;;;;15.73;7.80;;;;;;;;;;5069900;28;20395;-63
2020/12/14 12:01:08;;;;;;;11.52;7.10;;;;;;;;;;5083728;28;20053;-63
2020/12/14 12:03:34;;;;;;;14.18;7.47;;;;;;;;;;5086784;28;20097;-63
2020/12/14 12:06:01;;;;;;;14.68;7.55;;;;;;;;;;5085487;28;20036;-63
2020/12/14 12:08:27;;;;;;;12.07;7.07;;;;;;;;;;5068325;28;20028;-63
2020/12/14 12:10:53;;;;;;;13.63;6.65;;;;;;;;;;5085661;28;20055;-63
2020/12/14 12:13:19;;;;;;;13.48;6.82;;;;;;;;;;5079690;28;20078;-63
2020/12/14 12:15:46;;;;;;;12.20;7.05;;;;;;;;;;5086185;28;20024;-63
2020/12/14 12:18:12;;;;;;;16.08;9.23;;;;;;;;;;5076872;28;20046;-63
2020/12/14 12:20:38;;;;;;;24.23;13.77;;;;;;;;;;5086451;28;20099;-63
2020/12/14 12:23:04;;;;;;;13.20;7.28;;;;;;;;;;5068848;28;20024;-63
2020/12/14 12:25:30;;;;;;;14.02;7.25;;;;;;;;;;5072863;28;20089;-63
2020/12/14 12:27:56;;;;;;;13.40;7.53;;;;;;;;;;5074986;28;20029;-63
2020/12/14 12:30:23;;;;;;;11.25;6.28;;;;;;;;;;5085609;28;20024;-63
2020/12/14 12:32:49;;;;;;;11.98;7.18;;;;;;;;;;5075620;28;20651;-63
2020/12/14 12:35:16;;;;;;;11.95;7.43;;;;;;;;;;5070299;28;20012;-63
2020/12/14 12:37:41;;;;;;;11.75;6.93;;;;;;;;;;5078856;28;20035;-62
2020/12/14 12:40:09;;;;;;;13.60;7.13;;;;;;;;;;5077148;28;20024;-63
2020/12/14 12:42:35;;;;;;;13.27;6.28;;;;;;;;;;5077539;28;20020;-63
2020/12/14 12:45:01;;;;;;;14.60;7.47;;;;;;;;;;5071786;28;20032;-63
2020/12/14 12:47:28;;;;;;;12.55;6.88;;;;;;;;;;5073205;28;20051;-63
2020/12/14 12:49:54;;;;;;;13.65;6.50;;;;;;;;;;5084327;28;20035;-63
2020/12/14 12:52:20;;;;;;;10.02;5.88;;;;;;;;;;5077981;28;20119;-63
2020/12/14 12:54:46;;;;;;;10.88;5.93;;;;;;;;;;5083432;28;20648;-63
2020/12/14 12:57:15;;;;;;;12.40;6.60;;;;;;;;;;5078842;28;20434;-63
2020/12/14 12:59:41;;;;;;;11.05;6.22;;;;;;;;;;5060570;28;20044;-63
2020/12/14 13:02:07;;;;;;;10.55;5.78;;;;;;;;;;5064278;28;20020;-63
2020/12/14 13:04:33;;;;;;;14.10;6.32;;;;;;;;;;5076774;28;20369;-63
2020/12/14 13:06:59;;;;;;;12.82;6.30;;;;;;;;;;5068468;28;20043;-63
2020/12/14 13:09:25;;;;;;;11.80;6.57;;;;;;;;;;5079385;28;20078;-63
2020/12/14 13:11:51;;;;;;;8.52;5.57;;;;;;;;;;5078043;28;20029;-63
2020/12/14 13:14:18;;;;;;;9.63;5.43;;;;;;;;;;5074193;28;20375;-63
2020/12/14 13:16:44;;;;;;;9.63;5.70;;;;;;;;;;5077402;28;20513;-63
2020/12/14 13:19:11;;;;;;;9.40;4.93;;;;;;;;;;5076033;28;20020;-63
2020/12/14 13:21:38;;;;;;;9.10;5.07;;;;;;;;;;5083599;28;20154;-63
2020/12/14 13:24:04;;;;;;;7.53;4.97;;;;;;;;;;5063641;28;20415;-63
2020/12/14 13:26:33;;;;;;;7.93;4.85;;;;;;;;;;5075744;28;20036;-63
2020/12/14 13:28:59;;;;;;;9.52;5.55;;;;;;;;;;5075898;28;20024;-63
2020/12/14 13:31:26;;;;;;;9.88;5.03;;;;;;;;;;5069260;28;20040;-63
2020/12/14 13:33:53;;;;;;;10.45;5.43;;;;;;;;;;5071128;28;20073;-63
2020/12/14 13:36:19;;;;;;;13.48;7.53;;;;;;;;;;5078954;28;20437;-63
2020/12/14 13:38:46;;;;;;;11.43;6.82;;;;;;;;;;5084798;28;20406;-63
2020/12/14 13:41:12;;;;;;;10.18;7.45;;;;;;;;;;5064712;28;20118;-63
2020/12/14 13:43:38;;;;;;;9.30;6.30;;;;;;;;;;5074849;28;20033;-63
2020/12/14 13:46:07;;;;;;;9.43;5.88;;;;;;;;;;5069865;28;20021;-63
2020/12/14 13:48:34;;;;;;;9.93;5.70;;;;;;;;;;5070735;28;20056;-63
2020/12/14 13:51:00;;;;;;;8.80;5.57;;;;;;;;;;5077390;28;20028;-63
2020/12/14 13:53:26;;;;;;;11.18;6.13;;;;;;;;;;5071433;28;20431;-61
2020/12/14 13:55:52;;;;;;;12.55;7.10;;;;;;;;;;5064147;28;20031;-63
2020/12/14 13:58:18;;;;;;;9.43;6.43;;;;;;;;;;5059990;28;20369;-62
2020/12/14 14:00:44;;;;;;;13.15;7.93;;;;;;;;;;5069982;28;20666;-63
2020/12/14 14:03:10;;;;;;;9.32;5.85;;;;;;;;;;5075779;28;20048;-62
2020/12/14 14:05:36;;;;;;;9.32;5.63;;;;;;;;;;5083864;28;20766;-62
2020/12/14 14:08:02;;;;;;;9.70;6.18;;;;;;;;;;5076087;28;20525;-63
2020/12/14 14:10:30;;;;;;;7.22;4.75;;;;;;;;;;5085737;28;20024;-63
2020/12/14 14:12:56;;;;;;;9.45;6.38;;;;;;;;;;5073542;28;20025;-63
2020/12/14 14:15:22;;;;;;;9.15;6.25;;;;;;;;;;5074709;28;20055;-63
2020/12/14 14:17:48;;;;;;;11.93;6.20;;;;;;;;;;5074320;28;20032;-64